Time;durP1;ratioP1;P1;durP2;ratioP2;P2;SDS_P1;SDS_P2;PMS_P1;PMS_P2;Temp;Humidity;BMP_temperature;BMP_pressure;BME280_temperature;BME280_humidity;BME280_pressure;Samples;Min_cycle;Max_cycle;Signal;HPM_P1;HPM_P2
2024/03/01 00:02:00;;;;;;;25.65;14.50;;;5.60;16.30;;;;;;5052906;28;20052;-70
2024/03/01 00:04:26;;;;;;;31.80;16.30;;;5.70;99.90;;;;;;5053333;28;20056;-70
2024/03/01 00:06:51;;;;;;;28.45;15.48;;;5.70;99.90;;;;;;5053292;28;20115;-69
2024/03/01 00:09:17;;;;;;;30.20;17.25;;;5.80;99.90;;;;;;5052793;28;20032;-69
2024/03/01 00:11:43;;;;;;;32.97;16.98;;;5.70;58.50;;;;;;5052910;28;20033;-69
2024/03/01 00:14:08;;;;;;;29.33;16.40;;;5.70;99.90;;;;;;5053364;28;20467;-69
2024/03/01 00:16:34;;;;;;;31.58;16.30;;;5.70;99.90;;;;;;5052745;28;20025;-69
2024/03/01 00:18:59;;;;;;;35.53;18.27;;;5.70;1.00;;;;;;5052731;28;20028;-69
2024/03/01 00:21:26;;;;;;;37.15;18.75;;;5.70;99.90;;;;;;5053154;28;20075;-70
2024/03/01 00:23:52;;;;;;;32.17;18.02;;;5.80;99.90;;;;;;5053076;28;20479;-70
2024/03/01 00:26:17;;;;;;;35.38;18.42;;;5.90;99.90;;;;;;5052843;28;20067;-70
2024/03/01 00:28:43;;;;;;;31.98;17.15;;;5.90;99.90;;;;;;5053412;28;20108;-70
2024/03/01 00:31:08;;;;;;;36.63;18.60;;;6.00;99.90;;;;;;5052877;28;20067;-69
2024/03/01 00:33:34;;;;;;;39.45;19.88;;;5.90;99.90;;;;;;5052698;28;20120;-69
2024/03/01 00:35:59;;;;;;;36.58;18.30;;;6.10;99.90;;;;;;5053076;28;20021;-69
2024/03/01 00:38:25;;;;;;;37.13;19.50;;;6.10;99.90;;;;;;5054199;28;20025;-69
2024/03/01 00:40:51;;;;;;;40.15;19.60;;;6.20;99.90;;;;;;5056626;28;20025;-69
2024/03/01 00:43:16;;;;;;;37.42;20.05;;;6.20;1.00;;;;;;5056861;28;20368;-69
2024/03/01 00:45:42;;;;;;;42.63;19.50;;;6.30;1.00;;;;;;5057059;28;20044;-69
2024/03/01 00:48:10;;;;;;;37.42;20.05;;;6.20;1.00;;;;;;5056242;28;20045;-69
2024/03/01 00:50:36;;;;;;;37.95;19.80;;;6.30;1.00;;;;;;5056439;28;20029;-69
2024/03/01 00:53:04;;;;;;;36.95;18.98;;;6.30;1.00;;;;;;5056799;28;20033;-70
2024/03/01 00:55:30;;;;;;;38.85;19.33;;;6.20;99.90;;;;;;5056699;28;20028;-69
2024/03/01 00:57:55;;;;;;;37.28;19.75;;;6.20;1.00;;;;;;5056488;28;20022;-69
2024/03/01 01:00:21;;;;;;;41.00;20.20;;;6.10;99.90;;;;;;5056335;28;20029;-70
2024/03/01 01:02:47;;;;;;;39.95;20.83;;;6.10;99.90;;;;;;5056637;28;20033;-70
2024/03/01 01:05:12;;;;;;;37.22;19.50;;;6.10;99.90;;;;;;5056465;28;20043;-70
2024/03/01 01:07:38;;;;;;;40.85;20.63;;;6.10;99.90;;;;;;5056465;28;20029;-70
2024/03/01 01:10:04;;;;;;;39.85;20.35;;;6.10;99.90;;;;;;5056242;28;20029;-69
2024/03/01 01:12:30;;;;;;;39.38;20.92;;;6.10;99.90;;;;;;5056361;28;20410;-69
2024/03/01 01:14:56;;;;;;;45.65;21.73;;;6.10;1.00;;;;;;5056305;28;20486;-69
2024/03/01 01:17:21;;;;;;;42.00;21.15;;;6.10;1.00;;;;;;5056221;28;20068;-69
2024/03/01 01:19:47;;;;;;;38.50;20.83;;;6.10;1.00;;;;;;5056158;28;20064;-69
2024/03/01 01:22:13;;;;;;;41.10;21.55;;;6.10;99.90;;;;;;5055940;28;20135;-69
2024/03/01 01:24:38;;;;;;;39.05;20.75;;;6.20;1.00;;;;;;5056154;28;20081;-69
2024/03/01 01:27:04;;;;;;;43.60;21.27;;;6.20;1.00;;;;;;5056122;28;20029;-69
2024/03/01 01:29:30;;;;;;;42.05;21.83;;;6.30;1.00;;;;;;5056037;28;20115;-70
2024/03/01 01:31:55;;;;;;;41.08;22.08;;;6.40;99.90;;;;;;5056054;28;20110;-70
2024/03/01 01:34:21;;;;;;;42.53;21.98;;;6.50;99.90;;;;;;5055623;28;20013;-69
2024/03/01 01:36:46;;;;;;;41.60;21.08;;;6.50;99.90;;;;;;5055978;28;20494;-70
2024/03/01 01:39:12;;;;;;;41.40;20.80;;;6.50;92.50;;;;;;5055446;28;20024;-69
2024/03/01 01:41:38;;;;;;;41.45;21.58;;;6.40;99.90;;;;;;5055881;28;20075;-69
2024/03/01 01:44:04;;;;;;;42.92;21.25;;;6.30;99.90;;;;;;5055692;28;20463;-69
2024/03/01 01:46:30;;;;;;;42.63;22.42;;;6.30;99.90;;;;;;5055810;28;20032;-69
2024/03/01 01:48:56;;;;;;;44.22;22.77;;;6.40;99.90;;;;;;5055301;28;20044;-69
2024/03/01 01:51:23;;;;;;;43.75;21.85;;;6.50;1.00;;;;;;5054229;28;20087;-69
2024/03/01 01:53:48;;;;;;;43.95;21.85;;;6.50;99.90;;;;;;5055780;28;20096;-69
2024/03/01 01:56:14;;;;;;;42.30;21.42;;;6.60;99.90;;;;;;5055258;28;20136;-69
2024/03/01 01:58:42;;;;;;;44.80;22.58;;;6.70;99.90;;;;;;5055713;28;20021;-69
2024/03/01 02:01:09;;;;;;;44.33;23.48;;;6.80;1.00;;;;;;5055024;28;20473;-69
2024/03/01 02:03:36;;;;;;;39.80;21.35;;;6.80;99.90;;;;;;5055357;28;20489;-69
2024/03/01 02:06:03;;;;;;;41.13;21.98;;;6.90;99.90;;;;;;5055009;28;20433;-69
2024/03/01 02:08:33;;;;;;;41.30;22.50;;;6.90;99.90;;;;;;5055306;28;20025;-69
2024/03/01 02:10:59;;;;;;;39.75;20.85;;;7.00;99.90;;;;;;5054839;28;20036;-69
2024/03/01 02:13:25;;;;;;;42.22;21.42;;;7.00;99.90;;;;;;5055058;28;20397;-69
2024/03/01 02:15:52;;;;;;;40.78;21.17;;;7.00;99.90;;;;;;5055254;28;20029;-69
2024/03/01 02:18:18;;;;;;;46.10;21.92;;;7.00;99.90;;;;;;5055196;28;20483;-69
2024/03/01 02:21:02;;;;;;;45.90;22.83;;;6.90;99.90;;;;;;5054017;28;20091;-69
2024/03/01 02:23:28;;;;;;;42.75;21.02;;;6.90;1.00;;;;;;5054977;28;20033;-70
2024/03/01 02:25:54;;;;;;;39.13;20.60;;;6.90;1.00;;;;;;5054897;28;20025;-69
2024/03/01 02:28:20;;;;;;;41.35;21.48;;;7.00;1.00;;;;;;5055023;28;20103;-69
2024/03/01 02:30:46;;;;;;;42.28;20.88;;;7.00;99.90;;;;;;5054692;28;20136;-70
2024/03/01 02:33:11;;;;;;;41.45;21.23;;;7.00;99.90;;;;;;5055059;28;20025;-69
2024/03/01 02:35:37;;;;;;;40.08;21.17;;;7.00;99.90;;;;;;5054905;28;20467;-69
2024/03/01 02:38:03;;;;;;;39.10;20.80;;;7.00;99.90;;;;;;5054826;28;20463;-70
2024/03/01 02:40:29;;;;;;;41.90;21.35;;;6.80;99.90;;;;;;5054379;28;20032;-70
2024/03/01 02:42:55;;;;;;;39.63;21.55;;;6.70;1.00;;;;;;5054673;28;20024;-70
2024/03/01 02:45:21;;;;;;;41.95;22.45;;;6.50;99.90;;;;;;5054563;28;20029;-69
2024/03/01 02:47:47;;;;;;;41.88;21.13;;;5.90;99.90;;;;;;5054243;28;20049;-69
2024/03/01 02:50:12;;;;;;;40.28;20.83;;;6.50;99.90;;;;;;5054604;28;20044;-70
2024/03/01 02:52:40;;;;;;;40.78;21.13;;;6.40;99.90;;;;;;5053992;28;20067;-70
2024/03/01 02:55:05;;;;;;;41.78;21.75;;;6.30;1.00;;;;;;5054445;28;20029;-70
2024/03/01 02:57:31;;;;;;;45.60;21.67;;;6.30;1.00;;;;;;5054448;28;20029;-70
2024/03/01 02:59:57;;;;;;;40.58;20.80;;;6.20;1.00;;;;;;5053986;28;20035;-69
2024/03/01 03:02:22;;;;;;;44.38;22.63;;;6.20;99.90;;;;;;5054348;28;20125;-69
2024/03/01 03:04:48;;;;;;;40.45;21.17;;;6.20;99.90;;;;;;5054384;28;20029;-70
2024/03/01 03:07:15;;;;;;;45.88;21.92;;;6.40;99.90;;;;;;5053962;28;20471;-69
2024/03/01 03:09:42;;;;;;;42.22;21.40;;;6.00;99.90;;;;;;5054291;28;20131;-70
2024/03/01 03:12:09;;;;;;;42.67;21.52;;;6.00;1.00;;;;;;5054105;28;20031;-69
2024/03/01 03:14:35;;;;;;;44.65;23.48;;;5.90;1.00;;;;;;5053641;28;20524;-70
2024/03/01 03:17:00;;;;;;;43.80;21.45;;;5.80;99.90;;;;;;5054020;28;20115;-70
2024/03/01 03:19:26;;;;;;;49.13;22.75;;;5.70;1.00;;;;;;5054093;28;20025;-69
2024/03/01 03:21:51;;;;;;;46.20;23.73;;;5.60;1.00;;;;;;5053965;28;20025;-69
2024/03/01 03:24:18;;;;;;;48.40;22.88;;;5.60;1.00;;;;;;5054073;28;20029;-69
2024/03/01 03:26:43;;;;;;;44.13;21.20;;;5.60;1.00;;;;;;5053893;28;20037;-69
2024/03/01 03:29:09;;;;;;;47.70;22.60;;;5.70;1.00;;;;;;5053746;28;20036;-69
2024/03/01 03:31:34;;;;;;;48.65;23.30;;;5.60;1.00;;;;;;5053810;28;20025;-69
2024/03/01 03:34:00;;;;;;;46.15;21.75;;;5.60;1.00;;;;;;5053357;28;20013;-69
2024/03/01 03:36:25;;;;;;;44.47;22.15;;;5.60;1.00;;;;;;5053757;28;20390;-70
2024/03/01 03:38:51;;;;;;;45.40;22.55;;;5.60;1.00;;;;;;5053398;28;20021;-69
2024/03/01 03:41:16;;;;;;;42.20;21.95;;;5.60;1.00;;;;;;5053732;28;20459;-69
2024/03/01 03:43:42;;;;;;;46.90;22.40;;;5.60;1.00;;;;;;5053646;28;20104;-69
2024/03/01 03:46:07;;;;;;;47.63;23.50;;;5.60;1.00;;;;;;5053560;28;20035;-69
2024/03/01 03:48:33;;;;;;;48.25;23.52;;;5.70;1.00;;;;;;5053224;28;20044;-69
2024/03/01 03:50:59;;;;;;;46.20;23.42;;;5.70;1.00;;;;;;5053259;28;20083;-69
2024/03/01 03:53:24;;;;;;;50.13;23.77;;;5.80;1.00;;;;;;5053607;28;20025;-69
2024/03/01 03:55:51;;;;;;;54.30;24.75;;;5.70;1.00;;;;;;5053107;28;20017;-69
2024/03/01 03:58:16;;;;;;;44.90;22.45;;;5.70;1.00;;;;;;5053451;28;20394;-70
2024/03/01 04:00:43;;;;;;;53.95;23.67;;;5.80;1.00;;;;;;5053462;28;20020;-70
2024/03/01 04:03:08;;;;;;;51.70;24.40;;;5.80;1.00;;;;;;5053418;28;20025;-70
2024/03/01 04:05:34;;;;;;;48.78;24.77;;;5.90;1.00;;;;;;5053320;28;20364;-69
2024/03/01 04:07:59;;;;;;;47.50;24.15;;;5.80;1.00;;;;;;5053344;28;20123;-69
2024/03/01 04:10:25;;;;;;;56.22;25.30;;;5.90;1.00;;;;;;5052838;28;20394;-69
2024/03/01 04:12:51;;;;;;;50.10;24.00;;;5.80;1.00;;;;;;5052342;28;20487;-70
2024/03/01 04:15:16;;;;;;;48.95;24.17;;;5.80;1.00;;;;;;5053321;28;20130;-70
2024/03/01 04:17:42;;;;;;;46.50;23.45;;;5.80;1.00;;;;;;5053479;28;20021;-69
2024/03/01 04:20:08;;;;;;;49.10;23.60;;;5.80;1.00;;;;;;5053348;28;20475;-69
2024/03/01 04:22:33;;;;;;;45.60;21.73;;;5.90;1.00;;;;;;5053211;28;20033;-69
2024/03/01 04:25:00;;;;;;;47.95;23.00;;;5.90;1.00;;;;;;5052958;28;20364;-69
2024/03/01 04:27:26;;;;;;;47.58;22.23;;;5.90;1.00;;;;;;5053132;28;20028;-69
2024/03/01 04:29:51;;;;;;;49.25;23.55;;;6.00;1.00;;;;;;5052938;28;20029;-69
2024/03/01 04:32:18;;;;;;;48.80;23.35;;;6.00;1.00;;;;;;5053161;28;20068;-70
2024/03/01 04:34:44;;;;;;;45.42;22.77;;;6.00;1.00;;;;;;5053155;28;20503;-69
2024/03/01 04:37:13;;;;;;;57.53;24.90;;;5.90;1.00;;;;;;5053056;28;20480;-69
2024/03/01 04:39:39;;;;;;;50.00;23.73;;;5.90;1.00;;;;;;5053008;28;20111;-69
2024/03/01 04:42:04;;;;;;;53.53;25.15;;;5.90;1.00;;;;;;5052929;28;20538;-69
2024/03/01 04:44:30;;;;;;;47.22;23.02;;;6.00;13.40;;;;;;5053035;28;20526;-69
2024/03/01 04:46:56;;;;;;;51.83;24.13;;;6.00;12.90;;;;;;5052630;28;20037;-69
2024/03/01 04:49:21;;;;;;;48.17;23.38;;;6.00;14.10;;;;;;5052893;28;20418;-69
2024/03/01 04:51:47;;;;;;;46.10;22.00;;;5.90;3.10;;;;;;5052611;28;20021;-69
2024/03/01 04:54:13;;;;;;;51.95;22.45;;;5.80;2.60;;;;;;5052924;28;20060;-69
2024/03/01 04:56:38;;;;;;;45.47;23.05;;;5.70;28.40;;;;;;5052819;28;20108;-70
2024/03/01 04:59:04;;;;;;;46.95;23.35;;;5.70;35.50;;;;;;5052683;28;20052;-70
2024/03/01 05:01:29;;;;;;;53.22;24.30;;;5.70;46.80;;;;;;5052825;28;20040;-69
2024/03/01 05:03:55;;;;;;;55.05;25.13;;;5.70;54.10;;;;;;5052750;28;20506;-70
2024/03/01 05:06:20;;;;;;;50.22;25.85;;;5.70;71.70;;;;;;5052668;28;20036;-69
2024/03/01 05:08:46;;;;;;;47.33;25.42;;;5.80;91.10;;;;;;5052697;28;20032;-69
2024/03/01 05:11:12;;;;;;;51.05;24.63;;;5.90;86.70;;;;;;5052404;28;20022;-69
2024/03/01 05:13:37;;;;;;;43.78;23.30;;;5.90;78.50;;;;;;5052594;28;20078;-69
2024/03/01 05:16:03;;;;;;;49.97;23.42;;;6.00;77.70;;;;;;5052424;28;20029;-69
2024/03/01 05:18:29;;;;;;;47.28;22.92;;;6.00;79.40;;;;;;5052256;28;20056;-70
2024/03/01 05:20:55;;;;;;;50.60;24.45;;;6.10;78.20;;;;;;5052652;28;20029;-69
2024/03/01 05:23:23;;;;;;;47.72;21.75;;;6.10;79.20;;;;;;5052720;28;20029;-69
2024/03/01 05:25:49;;;;;;;44.08;21.50;;;6.20;82.20;;;;;;5054230;28;20029;-69
2024/03/01 05:28:15;;;;;;;53.35;22.38;;;6.20;80.40;;;;;;5056254;28;20028;-69
2024/03/01 05:30:40;;;;;;;47.00;22.13;;;6.20;81.50;;;;;;5055846;28;20029;-69
2024/03/01 05:33:07;;;;;;;43.30;21.20;;;6.20;80.40;;;;;;5056102;28;20486;-70
2024/03/01 05:35:34;;;;;;;47.97;21.77;;;6.10;79.50;;;;;;5056086;28;20025;-70
2024/03/01 05:37:59;;;;;;;44.88;21.20;;;6.10;85.90;;;;;;5056029;28;20474;-70
2024/03/01 05:40:25;;;;;;;44.33;21.42;;;6.00;92.70;;;;;;5055596;28;20113;-70
2024/03/01 05:42:51;;;;;;;43.42;21.98;;;6.10;98.30;;;;;;5055869;28;20029;-70
2024/03/01 05:45:16;;;;;;;50.13;21.50;;;6.00;99.10;;;;;;5056008;28;20029;-69
2024/03/01 05:47:44;;;;;;;41.38;20.70;;;6.20;99.90;;;;;;5055512;28;20057;-69
2024/03/01 05:50:11;;;;;;;44.28;22.15;;;6.10;97.20;;;;;;5055561;28;20029;-70
2024/03/01 05:52:39;;;;;;;48.28;22.88;;;6.10;99.90;;;;;;5055614;28;20502;-69
2024/03/01 05:55:05;;;;;;;46.15;22.33;;;6.10;99.90;;;;;;5055693;28;20017;-69
2024/03/01 05:57:32;;;;;;;50.45;23.60;;;6.10;99.90;;;;;;5055671;28;20078;-70
2024/03/01 05:59:57;;;;;;;49.33;23.48;;;6.20;99.90;;;;;;5055565;28;20029;-70
2024/03/01 06:02:23;;;;;;;47.20;22.40;;;6.20;99.90;;;;;;5055029;28;20116;-70
2024/03/01 06:04:49;;;;;;;46.05;22.92;;;6.30;99.90;;;;;;5055574;28;20036;-69
2024/03/01 06:07:16;;;;;;;45.75;21.67;;;6.30;99.90;;;;;;5055767;28;20033;-69
2024/03/01 06:09:42;;;;;;;50.83;22.98;;;6.30;99.90;;;;;;5055102;28;20119;-69
2024/03/01 06:12:07;;;;;;;46.67;22.05;;;6.30;99.90;;;;;;5055229;28;20116;-70
2024/03/01 06:14:33;;;;;;;44.60;22.45;;;6.30;99.90;;;;;;5055293;28;20040;-70
2024/03/01 06:16:59;;;;;;;49.20;23.00;;;6.40;99.90;;;;;;5055318;28;20020;-69
2024/03/01 06:19:24;;;;;;;52.42;23.92;;;6.40;99.60;;;;;;5055228;28;20437;-69
2024/03/01 06:21:50;;;;;;;52.70;23.77;;;6.40;98.00;;;;;;5055222;28;20383;-70
2024/03/01 06:24:15;;;;;;;47.95;21.77;;;6.50;98.20;;;;;;5055218;28;20056;-69
2024/03/01 06:26:41;;;;;;;42.55;21.23;;;6.50;96.90;;;;;;5054647;28;20017;-69
2024/03/01 06:29:07;;;;;;;45.58;21.55;;;6.60;94.80;;;;;;5054944;28;20505;-69
2024/03/01 06:31:32;;;;;;;43.55;20.80;;;6.70;92.10;;;;;;5054704;28;20082;-69
2024/03/01 06:33:58;;;;;;;46.20;20.95;;;6.80;92.10;;;;;;5054783;28;20104;-70
2024/03/01 06:36:23;;;;;;;48.63;21.42;;;6.80;99.90;;;;;;5054072;28;20024;-69
2024/03/01 06:38:49;;;;;;;45.28;22.42;;;6.90;99.90;;;;;;5054888;28;20029;-70
2024/03/01 06:41:14;;;;;;;41.95;20.73;;;7.00;99.90;;;;;;5054819;28;20081;-70
2024/03/01 06:43:40;;;;;;;41.47;22.65;;;7.10;99.90;;;;;;5054737;28;20387;-69
2024/03/01 06:46:07;;;;;;;45.30;21.35;;;7.40;99.90;;;;;;5054537;28;20036;-69
2024/03/01 06:48:33;;;;;;;39.60;20.35;;;7.50;4.60;;;;;;5054240;28;20135;-69
2024/03/01 06:50:59;;;;;;;36.90;19.08;;;7.60;1.00;;;;;;5054229;28;20116;-70
2024/03/01 06:53:26;;;;;;;43.75;21.00;;;7.70;1.00;;;;;;5054538;28;20501;-70
2024/03/01 06:55:52;;;;;;;39.38;20.63;;;7.80;1.00;;;;;;5054361;28;20029;-70
2024/03/01 06:58:17;;;;;;;39.80;19.48;;;7.80;1.00;;;;;;5054442;28;20083;-69
2024/03/01 07:00:46;;;;;;;38.10;19.60;;;7.80;1.00;;;;;;5054296;28;20036;-70
2024/03/01 07:03:14;;;;;;;37.40;18.85;;;7.80;1.00;;;;;;5053916;28;20032;-70
2024/03/01 07:05:40;;;;;;;36.00;18.60;;;7.80;1.00;;;;;;5054236;28;20079;-70
2024/03/01 07:08:06;;;;;;;39.97;19.77;;;7.80;1.00;;;;;;5053538;28;20033;-69
2024/03/01 07:10:31;;;;;;;44.15;21.10;;;7.90;1.00;;;;;;5053929;28;20442;-69
2024/03/01 07:12:57;;;;;;;39.67;22.55;;;7.90;1.00;;;;;;5053436;28;20075;-70
2024/03/01 07:15:23;;;;;;;45.60;24.52;;;7.90;1.00;;;;;;5053981;28;20079;-70
2024/03/01 07:17:48;;;;;;;46.38;24.23;;;8.00;1.00;;;;;;5053541;28;20103;-70
2024/03/01 07:20:14;;;;;;;40.03;20.80;;;8.00;99.90;;;;;;5053024;28;20391;-70
2024/03/01 07:22:40;;;;;;;37.47;19.77;;;8.10;1.00;;;;;;5053884;28;20426;-70
2024/03/01 07:25:05;;;;;;;35.40;17.70;;;8.10;1.00;;;;;;5053786;28;20052;-70
2024/03/01 07:27:34;;;;;;;34.85;17.02;;;8.20;1.00;;;;;;5053171;28;20068;-70
2024/03/01 07:30:00;;;;;;;28.75;15.75;;;8.20;1.00;;;;;;5036737;28;20033;-69
2024/03/01 07:32:25;;;;;;;30.35;14.32;;;8.20;1.00;;;;;;5053229;28;20395;-70
2024/03/01 07:34:51;;;;;;;26.13;13.98;;;8.30;1.00;;;;;;5053535;28;20032;-70
2024/03/01 07:37:17;;;;;;;24.33;13.50;;;8.40;1.00;;;;;;5053703;28;20475;-70
2024/03/01 07:39:43;;;;;;;22.77;13.07;;;8.50;1.00;;;;;;5053405;28;20035;-70
2024/03/01 07:42:08;;;;;;;26.05;13.70;;;8.60;99.90;;;;;;5053741;28;20033;-70
2024/03/01 07:44:34;;;;;;;23.33;12.82;;;8.70;99.90;;;;;;5053482;28;20032;-70
2024/03/01 07:47:02;;;;;;;25.75;12.30;;;8.90;99.90;;;;;;5053241;28;20039;-69
2024/03/01 07:49:28;;;;;;;26.80;13.43;;;9.00;99.90;;;;;;5052809;28;20509;-70
2024/03/01 07:51:54;;;;;;;24.15;12.43;;;9.00;72.70;;;;;;5053154;28;20028;-70
2024/03/01 07:54:20;;;;;;;24.60;12.50;;;9.00;1.00;;;;;;5053059;28;20021;-70
2024/03/01 07:56:46;;;;;;;22.55;11.88;;;9.00;1.00;;;;;;5053484;28;20028;-70
2024/03/01 07:59:11;;;;;;;23.27;13.15;;;9.10;99.90;;;;;;5053421;28;20029;-70
2024/03/01 08:01:37;;;;;;;23.27;12.32;;;9.30;99.90;;;;;;5053089;28;20032;-70
2024/03/01 08:04:03;;;;;;;24.42;11.88;;;9.40;99.90;;;;;;5053285;28;20040;-70
2024/03/01 08:06:29;;;;;;;25.33;12.98;;;9.50;99.90;;;;;;5053633;28;20040;-70
2024/03/01 08:08:54;;;;;;;21.27;11.43;;;9.60;92.70;;;;;;5051306;28;20074;-70
2024/03/01 08:11:42;;;;;;;20.08;12.00;;;9.70;1.00;;;;;;5051663;28;20025;-69
2024/03/01 08:14:26;;;;;;;24.63;12.63;;;9.80;24.20;;;;;;5051682;28;20021;-69
2024/03/01 08:16:54;;;;;;;20.60;11.98;;;9.80;1.00;;;;;;5055501;28;20120;-69
2024/03/01 08:19:21;;;;;;;23.17;12.23;;;10.00;99.90;;;;;;5056319;28;20025;-69
2024/03/01 08:21:47;;;;;;;20.27;10.88;;;10.10;1.00;;;;;;5051350;28;20025;-70
2024/03/01 08:24:22;;;;;;;20.95;11.13;;;10.30;1.00;;;;;;5051213;28;20025;-69
2024/03/01 08:26:48;;;;;;;17.02;10.68;;;10.50;1.00;;;;;;5051373;28;20476;-69
2024/03/01 08:29:14;;;;;;;17.05;9.93;;;10.70;1.00;;;;;;5051718;28;20043;-69
2024/03/01 08:31:39;;;;;;;17.27;9.73;;;10.70;99.90;;;;;;5051058;28;20028;-69
2024/03/01 08:34:19;;;;;;;17.13;10.55;;;10.80;99.90;;;;;;5050864;28;20029;-67
2024/03/01 08:36:45;;;;;;;16.88;9.85;;;11.10;1.00;;;;;;5051162;28;20112;-71
2024/03/01 08:39:16;;;;;;;19.63;10.27;;;10.90;99.90;;;;;;5051367;28;20104;-70
2024/03/01 08:41:46;;;;;;;17.50;9.52;;;10.80;1.00;;;;;;5052308;28;20087;-70
2024/03/01 08:44:39;;;;;;;19.58;10.63;;;10.60;1.00;;;;;;5052345;28;20501;-71
2024/03/01 08:47:11;;;;;;;22.40;12.13;;;10.30;99.90;;;;;;5052462;28;20026;-71
2024/03/01 08:52:30;;;;;;;17.58;9.82;;;10.30;1.00;;;;;;5110993;27;20381;-69
2024/03/01 08:55:20;;;;;;;17.92;10.32;;;10.10;99.90;;;;;;5111008;28;20547;-68
2024/03/01 08:57:47;;;;;;;18.38;10.40;;;10.10;99.90;;;;;;5111083;28;20031;-69
2024/03/01 09:00:37;;;;;;;15.35;9.63;;;10.20;99.90;;;;;;5110531;28;20042;-69
2024/03/01 09:03:04;;;;;;;15.05;9.80;;;10.30;99.90;;;;;;5108666;28;20433;-69
2024/03/01 09:05:30;;;;;;;17.75;10.05;;;10.40;1.00;;;;;;5110069;28;20024;-69
2024/03/01 09:07:57;;;;;;;18.63;10.38;;;10.50;1.00;;;;;;5109726;28;20023;-68
2024/03/01 09:10:32;;;;;;;15.55;10.60;;;10.20;1.00;;;;;;5109966;28;20493;-69
2024/03/01 09:12:58;;;;;;;17.67;11.55;;;10.00;99.90;;;;;;5109891;28;20065;-69
2024/03/01 09:15:25;;;;;;;22.08;12.85;;;9.90;99.90;;;;;;5110006;28;20020;-70
2024/03/01 09:17:52;;;;;;;20.52;13.35;;;9.80;99.90;;;;;;5105395;28;20055;-69
2024/03/01 09:20:36;;;;;;;22.65;14.35;;;9.70;99.90;;;;;;5110662;28;20024;-69
2024/03/01 09:23:06;;;;;;;19.65;12.18;;;9.60;1.00;;;;;;5110225;28;20122;-70
2024/03/01 09:28:24;;;;;;;13.32;7.88;;;9.40;21.60;;;;;;5070510;28;20429;-68
2024/03/01 09:30:53;;;;;;;11.18;6.55;;;9.20;1.00;;;;;;5070623;28;20413;-69
2024/03/01 09:33:20;;;;;;;12.55;6.60;;;8.80;1.00;;;;;;5070673;28;20043;-69
2024/03/01 09:35:50;;;;;;;8.38;4.97;;;8.70;1.00;;;;;;5069964;28;20394;-69
2024/03/01 09:38:16;;;;;;;9.20;5.78;;;8.60;1.00;;;;;;5070479;28;20062;-69
2024/03/01 09:43:52;;;;;;;7.20;5.20;;;8.50;1.00;;;;;;5070510;28;20157;-71
2024/03/01 09:46:43;;;;;;;11.75;6.90;;;8.50;1.00;;;;;;5070582;28;20039;-70
2024/03/01 09:49:38;;;;;;;16.50;10.50;;;8.40;1.00;;;;;;5070353;28;20435;-71
2024/03/01 09:55:29;;;;;;;10.23;6.78;;;8.30;99.90;;;;;;5090505;28;20386;-68
2024/03/01 09:58:11;;;;;;;14.20;7.78;;;8.30;99.90;;;;;;5083263;28;20043;-69
2024/03/01 10:01:03;;;;;;;11.50;7.68;;;8.10;1.00;;;;;;5090643;28;20097;-69
2024/03/01 10:03:46;;;;;;;11.98;8.18;;;8.10;1.00;;;;;;5090416;28;20482;-68
2024/03/01 10:06:46;;;;;;;12.15;7.00;;;8.10;1.00;;;;;;5090393;28;20025;-68
2024/03/01 10:09:51;;;;;;;14.30;7.72;;;8.10;1.00;;;;;;5090571;28;20513;-69
2024/03/01 10:12:43;;;;;;;12.20;7.90;;;8.10;1.00;;;;;;5089940;28;20035;-69
2024/03/01 10:15:21;;;;;;;10.55;6.68;;;8.10;1.00;;;;;;5090182;28;20386;-68
2024/03/01 10:18:27;;;;;;;10.80;7.45;;;8.10;1.00;;;;;;5090611;28;20371;-69
2024/03/01 10:21:10;;;;;;;13.20;7.80;;;8.10;1.00;;;;;;5090061;28;20079;-69
2024/03/01 10:23:51;;;;;;;13.77;7.45;;;8.10;1.00;;;;;;5090072;28;20390;-69
2024/03/01 10:26:28;;;;;;;13.35;8.27;;;8.20;1.00;;;;;;5089890;28;20074;-70
2024/03/01 10:29:23;;;;;;;12.63;8.52;;;8.00;1.00;;;;;;5090081;28;20028;-69
2024/03/01 10:32:10;;;;;;;13.13;8.35;;;8.10;1.00;;;;;;5089987;28;20024;-69
2024/03/01 10:34:59;;;;;;;21.35;9.52;;;8.30;1.00;;;;;;5089847;28;20509;-69
2024/03/01 10:37:35;;;;;;;20.65;8.18;;;8.40;1.00;;;;;;5089488;28;20060;-69
2024/03/01 10:40:08;;;;;;;11.70;7.65;;;8.60;1.00;;;;;;5089487;28;20039;-69
2024/03/01 10:42:36;;;;;;;12.45;7.72;;;8.60;99.90;;;;;;5090062;28;20046;-69
2024/03/01 10:45:18;;;;;;;11.63;7.60;;;8.70;99.90;;;;;;5089270;28;20094;-69
2024/03/01 10:47:44;;;;;;;9.30;6.88;;;8.90;99.90;;;;;;5089534;28;20039;-69
2024/03/01 10:53:04;;;;;;;8.77;6.72;;;9.00;99.90;;;;;;5069412;28;20950;-70
2024/03/01 10:55:34;;;;;;;10.82;6.78;;;9.00;99.90;;;;;;5049908;28;20033;-69
2024/03/01 10:58:12;;;;;;;10.40;6.55;;;9.30;99.90;;;;;;5050312;28;20029;-70
2024/03/01 11:00:48;;;;;;;8.80;6.28;;;9.80;1.00;;;;;;5050419;28;20116;-69
2024/03/01 11:03:23;;;;;;;8.45;5.43;;;10.30;99.90;;;;;;5050282;28;20490;-69
2024/03/01 11:06:05;;;;;;;9.00;5.38;;;10.30;1.00;;;;;;5064527;28;20060;-69
2024/03/01 11:09:00;;;;;;;9.40;5.93;;;9.90;99.90;;;;;;5069784;28;20047;-69
2024/03/01 11:11:55;;;;;;;11.10;6.20;;;9.90;1.00;;;;;;5068569;28;20039;-69
2024/03/01 11:14:23;;;;;;;7.90;5.68;;;9.80;1.00;;;;;;5075919;28;20466;-70
2024/03/01 11:16:53;;;;;;;8.32;6.28;;;9.60;99.90;;;;;;5070183;28;20063;-70
2024/03/01 11:19:24;;;;;;;8.18;6.03;;;9.70;99.90;;;;;;5069919;28;20029;-70
2024/03/01 11:22:17;;;;;;;8.70;6.15;;;9.80;64.60;;;;;;5069748;28;20482;-70
2024/03/01 11:25:07;;;;;;;7.57;5.68;;;9.80;1.00;;;;;;5069981;28;20059;-70
2024/03/01 11:27:36;;;;;;;6.55;5.57;;;9.90;99.90;;;;;;5070398;28;20103;-70
2024/03/01 11:30:05;;;;;;;6.85;5.40;;;9.90;99.90;;;;;;5069778;28;20124;-70
2024/03/01 11:32:35;;;;;;;6.20;4.65;;;9.70;99.90;;;;;;5069477;28;20107;-70
2024/03/01 11:35:22;;;;;;;5.97;4.95;;;9.70;1.00;;;;;;5069641;28;20049;-70
2024/03/01 11:41:22;;;;;;;7.38;4.80;;;9.50;99.90;;;;;;5111094;27;20873;-69
2024/03/01 11:44:18;;;;;;;8.25;5.88;;;9.60;1.00;;;;;;5110781;28;20448;-69
2024/03/01 11:47:14;;;;;;;7.32;5.45;;;9.70;1.00;;;;;;5110998;28;20107;-69
2024/03/01 11:50:09;;;;;;;8.90;6.05;;;9.80;99.90;;;;;;5111000;28;20127;-69
2024/03/01 11:58:36;;;;;;;9.90;6.55;;;10.20;99.90;;;;;;5070036;28;20382;-69
2024/03/01 12:04:05;;;;;;;8.10;6.32;;;10.20;99.90;;;;;;5090466;27;20388;-70
2024/03/01 12:07:05;;;;;;;7.35;6.15;;;10.10;99.90;;;;;;5071770;28;20028;-70
2024/03/01 12:09:49;;;;;;;6.65;5.57;;;10.40;99.90;;;;;;5071561;28;20047;-70
2024/03/01 12:12:29;;;;;;;7.43;5.47;;;10.40;75.80;;;;;;5089857;28;20028;-70
2024/03/01 12:14:59;;;;;;;10.82;5.95;;;10.40;91.40;;;;;;5090665;28;20505;-70
2024/03/01 12:17:39;;;;;;;7.60;6.03;;;10.60;95.40;;;;;;5089780;28;20119;-70
2024/03/01 12:20:09;;;;;;;5.20;4.68;;;10.80;1.00;;;;;;5090193;28;20119;-71
2024/03/01 12:23:02;;;;;;;6.97;4.78;;;11.30;1.00;;;;;;5090293;28;20025;-70
2024/03/01 12:25:28;;;;;;;6.80;5.10;;;11.50;99.90;;;;;;5076996;28;20483;-70
2024/03/01 12:30:59;;;;;;;9.07;4.88;;;11.20;99.90;;;;;;5110845;27;20731;-68
2024/03/01 12:33:53;;;;;;;6.05;4.70;;;11.40;99.90;;;;;;5110533;28;20034;-69
2024/03/01 12:36:33;;;;;;;6.95;4.20;;;11.40;99.90;;;;;;5111049;28;20020;-69
2024/03/01 12:39:03;;;;;;;6.72;4.28;;;11.50;99.90;;;;;;5111166;28;20046;-70
2024/03/01 12:44:54;;;;;;;6.70;4.18;;;11.50;71.90;;;;;;5070224;28;20391;-70
2024/03/01 12:47:52;;;;;;;4.50;4.00;;;11.50;97.70;;;;;;5064097;28;20033;-71
2024/03/01 12:50:49;;;;;;;6.18;4.18;;;11.50;43.10;;;;;;5054689;28;20056;-70
2024/03/01 12:56:40;;;;;;;4.18;3.45;;;12.00;1.00;;;;;;5111028;27;20376;-70
2024/03/01 12:59:18;;;;;;;6.68;4.63;;;11.80;1.00;;;;;;5090744;28;20032;-70
2024/03/01 13:02:02;;;;;;;4.43;4.03;;;11.70;1.00;;;;;;5092030;28;20111;-69
2024/03/01 13:04:42;;;;;;;4.45;4.05;;;11.80;1.00;;;;;;5110580;27;20500;-70
2024/03/01 13:07:09;;;;;;;5.75;4.13;;;11.90;1.00;;;;;;5110621;28;20107;-70
2024/03/01 13:09:43;;;;;;;6.18;4.30;;;12.10;1.00;;;;;;5111073;28;20028;-70
2024/03/01 13:12:15;;;;;;;5.55;4.85;;;12.20;1.00;;;;;;5110629;28;20030;-70
2024/03/01 13:15:13;;;;;;;4.75;4.25;;;12.20;1.00;;;;;;5110887;28;20074;-70
2024/03/01 13:20:30;;;;;;;5.32;4.40;;;12.30;1.00;;;;;;5111078;27;20927;-69
2024/03/01 13:23:28;;;;;;;4.45;4.00;;;12.10;1.00;;;;;;5111016;28;20067;-69
2024/03/01 13:26:18;;;;;;;4.38;3.88;;;12.00;99.90;;;;;;5110933;28;20108;-69
2024/03/01 13:28:56;;;;;;;4.72;4.30;;;11.80;99.90;;;;;;5108360;28;20036;-70
2024/03/01 13:31:25;;;;;;;4.45;4.05;;;11.70;1.00;;;;;;5111204;28;20024;-69
2024/03/01 13:33:55;;;;;;;5.18;3.92;;;11.70;1.00;;;;;;5110742;28;20038;-70
2024/03/01 13:36:26;;;;;;;4.70;4.20;;;11.90;99.90;;;;;;5110803;28;20031;-70
2024/03/01 13:39:33;;;;;;;4.75;4.00;;;11.90;99.90;;;;;;5110707;28;20032;-70